Time;durP1;ratioP1;P1;durP2;ratioP2;P2;SDS_P1;SDS_P2;PMS_P1;PMS_P2;Temp;Humidity;BMP_temperature;BMP_pressure;BME280_temperature;BME280_humidity;BME280_pressure;Samples;Min_cycle;Max_cycle;Signal;HPM_P1;HPM_P2
2023/01/11 03:55:37;;;;;;;11.30;4.50;;;;;;;-5.12;61.79;101874.50;105728;1283;613290;-74
2023/01/11 03:58:04;;;;;;;9.30;4.30;;;;;;;-4.40;59.18;101875.11;107198;1266;230549;-75
2023/01/11 04:00:31;;;;;;;9.30;4.00;;;;;;;-4.39;58.74;101875.58;107361;1266;59397;-75
2023/01/11 04:02:59;;;;;;;11.80;4.30;;;;;;;-4.42;58.10;101869.73;107371;1266;72309;-76
2023/01/11 04:05:26;;;;;;;13.30;4.30;;;;;;;-4.43;58.07;101876.08;107413;1266;74269;-76
2023/01/11 04:07:53;;;;;;;10.20;3.90;;;;;;;-4.64;57.78;101878.68;107413;1269;70748;-76
2023/01/11 04:10:20;;;;;;;10.50;3.50;;;;;;;-4.94;58.01;101873.73;107365;1266;62251;-76
2023/01/11 04:12:47;;;;;;;14.70;4.30;;;;;;;-4.74;57.21;101868.66;107401;1266;59478;-74
2023/01/11 04:15:15;;;;;;;7.70;3.80;;;;;;;-4.75;56.97;101861.59;107369;1266;70784;-74
2023/01/11 04:17:43;;;;;;;11.50;3.60;;;;;;;-4.78;56.78;101859.58;107413;1265;70824;-75
2023/01/11 04:20:11;;;;;;;10.20;4.20;;;;;;;-4.79;56.82;101855.17;107346;1266;72482;-76
2023/01/11 04:22:38;;;;;;;12.50;4.10;;;;;;;-4.88;56.91;101854.71;107816;1257;63495;-74
2023/01/11 04:25:05;;;;;;;19.00;4.30;;;;;;;-4.92;57.08;101862.19;107764;1257;59533;-74
2023/01/11 04:27:32;;;;;;;8.80;3.50;;;;;;;-4.94;57.17;101867.52;107805;1257;73616;-76
2023/01/11 04:29:59;;;;;;;13.70;4.10;;;;;;;-4.96;57.08;101879.46;107726;1257;73200;-77
2023/01/11 04:32:26;;;;;;;9.10;3.80;;;;;;;-4.98;56.98;101878.75;107897;1257;73798;-74
2023/01/11 04:34:53;;;;;;;8.20;3.30;;;;;;;-4.97;57.36;101879.05;107756;1262;59531;-74
2023/01/11 04:37:20;;;;;;;10.20;4.20;;;;;;;-4.99;56.91;101878.64;107903;1257;60359;-76
2023/01/11 04:39:47;;;;;;;10.20;4.50;;;;;;;-5.01;57.31;101883.02;107797;1258;73850;-75
2023/01/11 04:42:17;;;;;;;9.80;3.70;;;;;;;-5.02;57.45;101883.59;107809;1257;70890;-75
2023/01/11 04:44:46;;;;;;;8.90;3.20;;;;;;;-4.98;57.51;101894.93;107753;1257;71525;-75
2023/01/11 04:47:15;;;;;;;10.70;4.70;;;;;;;-4.96;57.69;101905.52;107765;1260;60474;-75
2023/01/11 04:49:41;;;;;;;7.80;4.00;;;;;;;-4.90;57.65;101913.08;107702;1260;59487;-77
2023/01/11 04:52:10;;;;;;;9.50;4.00;;;;;;;-4.83;57.43;101915.32;107673;1259;75127;-75
2023/01/11 04:54:37;;;;;;;11.50;4.40;;;;;;;-4.84;57.29;101915.38;107698;1260;74840;-78
2023/01/11 04:57:04;;;;;;;8.30;4.00;;;;;;;-4.87;57.17;101918.19;107651;1260;72639;-76
2023/01/11 04:59:31;;;;;;;8.40;3.80;;;;;;;-4.86;57.17;101920.04;107642;1260;61263;-75
2023/01/11 05:01:58;;;;;;;10.10;4.40;;;;;;;-4.89;56.82;101918.41;107617;1260;60981;-74
2023/01/11 05:04:25;;;;;;;9.00;4.00;;;;;;;-4.90;56.76;101917.55;107653;1260;75173;-75
2023/01/11 05:06:52;;;;;;;11.60;3.80;;;;;;;-4.86;56.79;101920.24;107671;1260;73407;-74
2023/01/11 05:09:19;;;;;;;8.80;3.80;;;;;;;-4.86;56.73;101917.08;107600;1260;73120;-74
2023/01/11 05:11:46;;;;;;;10.00;4.40;;;;;;;-4.90;56.52;101911.86;107674;1260;62048;-74
2023/01/11 05:14:15;;;;;;;7.60;3.60;;;;;;;-4.95;56.47;101909.61;107661;1260;60351;-74
2023/01/11 05:17:05;;;;;;;9.70;4.10;;;;;;;-5.00;56.37;101904.79;108158;1260;72684;-75
2023/01/11 05:19:49;;;;;;;8.20;3.50;;;;;;;-5.04;56.24;101905.98;107933;1260;72859;-75
2023/01/11 05:22:16;;;;;;;10.70;4.40;;;;;;;-5.00;56.12;101909.48;107575;1260;75045;-75
2023/01/11 05:24:43;;;;;;;10.50;4.20;;;;;;;-4.97;56.12;101905.94;107608;1260;59812;-74
2023/01/11 05:27:10;;;;;;;9.10;3.70;;;;;;;-4.94;55.98;101908.34;107578;1260;59615;-75
2023/01/11 05:29:37;;;;;;;9.00;4.30;;;;;;;-4.93;55.79;101913.16;107974;1256;74354;-75
2023/01/11 05:32:04;;;;;;;10.30;4.20;;;;;;;-5.01;55.68;101914.61;108006;1256;72064;-74
2023/01/11 05:34:31;;;;;;;8.00;4.20;;;;;;;-5.11;55.56;101919.77;107929;1261;72743;-76
2023/01/11 05:36:58;;;;;;;10.60;4.10;;;;;;;-5.16;55.42;101923.66;107965;1257;60911;-76
2023/01/11 05:39:25;;;;;;;10.70;4.20;;;;;;;-5.19;55.58;101920.88;107986;1256;60065;-74
2023/01/11 05:41:52;;;;;;;8.50;4.00;;;;;;;-5.22;55.55;101923.89;107995;1256;75068;-75
2023/01/11 05:47:05;;;;;;;8.70;4.20;;;;;;;-5.17;55.87;101934.65;108003;1255;72964;-76
2023/01/11 05:49:32;;;;;;;10.60;4.30;;;;;;;-5.05;55.88;101940.13;107985;1257;62926;-74
2023/01/11 05:51:59;;;;;;;9.30;4.20;;;;;;;-4.97;55.60;101933.94;107951;1257;59671;-75
2023/01/11 05:54:26;;;;;;;7.10;3.60;;;;;;;-5.02;55.28;101933.30;107980;1256;71609;-75
2023/01/11 05:56:55;;;;;;;8.70;3.90;;;;;;;-5.11;55.24;101938.33;108026;1255;75151;-75
2023/01/11 05:59:22;;;;;;;9.20;4.00;;;;;;;-5.18;55.16;101940.08;108022;1256;72745;-76
2023/01/11 06:01:52;;;;;;;9.80;4.50;;;;;;;-5.22;55.25;101948.74;108020;1259;63295;-75
2023/01/11 06:04:19;;;;;;;9.70;4.70;;;;;;;-5.24;55.30;101955.46;107995;1256;61135;-77
2023/01/11 06:06:47;;;;;;;15.20;4.60;;;;;;;-5.25;55.48;101951.92;108034;1256;74981;-76
2023/01/11 06:09:14;;;;;;;12.10;4.50;;;;;;;-5.18;55.34;101950.36;108019;1255;73294;-75
2023/01/11 06:11:41;;;;;;;10.50;4.60;;;;;;;-5.15;55.10;101949.76;108004;1257;74674;-75
2023/01/11 06:14:08;;;;;;;10.90;4.50;;;;;;;-5.21;54.95;101947.83;108005;1257;62005;-76
2023/01/11 06:16:35;;;;;;;11.90;4.80;;;;;;;-5.31;55.24;101949.11;107980;1257;62052;-77
2023/01/11 06:19:02;;;;;;;10.50;4.60;;;;;;;-5.32;55.10;101954.60;107998;1257;71196;-75
2023/01/11 06:21:29;;;;;;;7.30;3.50;;;;;;;-5.28;55.36;101953.42;107963;1260;72408;-76
2023/01/11 06:23:56;;;;;;;11.20;5.10;;;;;;;-5.32;55.20;101950.58;108008;1257;73549;-76
2023/01/11 06:26:23;;;;;;;11.40;4.00;;;;;;;-5.38;55.35;101947.80;108047;1257;61116;-74
2023/01/11 06:28:50;;;;;;;10.20;4.40;;;;;;;-5.44;55.32;101942.62;108008;1255;59602;-74
2023/01/11 06:31:17;;;;;;;9.20;5.10;;;;;;;-5.45;55.35;101946.21;107994;1256;73955;-76
2023/01/11 06:33:45;;;;;;;11.40;4.70;;;;;;;-5.44;55.33;101947.36;107745;1256;72958;-75
2023/01/11 06:36:13;;;;;;;9.30;4.10;;;;;;;-5.40;55.32;101941.33;108000;1255;74226;-75
2023/01/11 06:38:40;;;;;;;10.40;4.80;;;;;;;-5.38;55.23;101943.03;107988;1257;62425;-75
2023/01/11 06:41:07;;;;;;;9.00;4.10;;;;;;;-5.44;54.85;101945.39;108040;1256;61429;-75
2023/01/11 06:43:35;;;;;;;10.50;4.10;;;;;;;-5.51;54.82;101943.52;108004;1260;75311;-75
2023/01/11 06:46:02;;;;;;;12.50;5.40;;;;;;;-5.56;55.04;101946.70;108100;1257;72793;-75
2023/01/11 06:48:29;;;;;;;11.70;5.20;;;;;;;-5.55;55.08;101955.98;107876;1261;72812;-75
2023/01/11 06:50:57;;;;;;;10.50;4.60;;;;;;;-5.53;55.05;101962.95;107996;1257;62145;-74
2023/01/11 06:53:24;;;;;;;11.00;4.70;;;;;;;-5.55;54.99;101964.83;108023;1255;60489;-77
2023/01/11 06:55:55;;;;;;;9.60;4.20;;;;;;;-5.59;54.79;101972.30;108024;1257;75057;-75
2023/01/11 06:58:23;;;;;;;8.70;4.20;;;;;;;-5.68;54.77;101976.19;108047;1257;73129;-74
2023/01/11 07:00:51;;;;;;;9.40;4.60;;;;;;;-5.74;54.88;101978.95;107994;1257;73489;-74
2023/01/11 07:03:19;;;;;;;9.70;4.30;;;;;;;-5.76;54.84;101976.84;107802;1256;62883;-74
2023/01/11 07:05:46;;;;;;;9.40;4.00;;;;;;;-5.72;54.92;101971.02;108041;1257;59584;-75
2023/01/11 07:08:13;;;;;;;11.80;4.90;;;;;;;-5.74;54.57;101972.70;108009;1257;75338;-75
2023/01/11 07:10:42;;;;;;;9.60;4.10;;;;;;;-5.76;54.89;101970.41;108014;1257;74494;-75
2023/01/11 07:13:15;;;;;;;8.80;4.50;;;;;;;-5.79;54.58;101962.69;108009;1261;74779;-75
2023/01/11 07:15:43;;;;;;;12.40;4.40;;;;;;;-5.79;54.95;101956.27;107800;1257;59984;-74
2023/01/11 07:18:11;;;;;;;8.70;3.80;;;;;;;-5.79;54.94;101955.58;108066;1256;62184;-76
2023/01/11 07:20:39;;;;;;;8.50;4.20;;;;;;;-5.79;54.88;101957.83;108039;1256;75849;-75
2023/01/11 07:23:06;;;;;;;13.90;4.90;;;;;;;-5.81;54.75;101957.95;108006;1257;73633;-75
2023/01/11 07:25:34;;;;;;;10.00;4.80;;;;;;;-5.85;54.89;101960.19;107973;1260;73903;-74
2023/01/11 07:28:03;;;;;;;9.80;4.20;;;;;;;-5.86;55.08;101960.06;107919;1257;61052;-76
2023/01/11 07:30:33;;;;;;;10.90;4.90;;;;;;;-5.89;54.84;101965.52;108003;1255;60990;-75
2023/01/11 07:33:17;;;;;;;9.10;3.80;;;;;;;-5.90;55.19;101974.06;108055;1257;74294;-75
2023/01/11 07:35:47;;;;;;;10.60;4.50;;;;;;;-5.91;55.18;101969.80;107945;1256;71879;-75
2023/01/11 07:38:14;;;;;;;10.90;4.60;;;;;;;-5.94;55.01;101971.08;107930;1262;73166;-74
2023/01/11 07:40:41;;;;;;;11.30;4.20;;;;;;;-5.95;55.11;101969.74;107913;1257;60795;-76
2023/01/11 07:43:17;;;;;;;8.30;4.40;;;;;;;-5.94;55.09;101973.14;107964;1256;62489;-75
2023/01/11 07:45:47;;;;;;;10.20;4.60;;;;;;;-5.92;55.06;101970.42;107821;1256;73882;-76
2023/01/11 07:48:23;;;;;;;8.50;4.40;;;;;;;-5.88;55.08;101965.41;107774;1257;74368;-75
2023/01/11 07:50:51;;;;;;;10.80;4.60;;;;;;;-5.80;55.00;101965.70;107894;1256;72888;-75
2023/01/11 07:53:19;;;;;;;12.50;5.00;;;;;;;-5.78;55.07;101967.27;107870;1260;60187;-74
2023/01/11 12:05:37;;;;;;;12.00;5.50;;;;;;;-2.99;54.80;101818.08;105805;1283;612553;-75
2023/01/11 12:08:04;;;;;;;10.70;5.80;;;;;;;-2.34;52.51;101818.08;107130;1265;138826;-75
2023/01/11 12:10:31;;;;;;;11.20;5.90;;;;;;;-2.38;52.10;101813.42;107393;1264;62455;-75
2023/01/11 12:13:00;;;;;;;11.70;5.90;;;;;;;-2.46;51.77;101809.24;107460;1266;73070;-74
2023/01/11 12:15:29;;;;;;;13.00;6.30;;;;;;;-2.55;51.64;101810.95;107435;1266;73304;-76
2023/01/11 12:18:21;;;;;;;14.10;7.00;;;;;;;-2.62;51.84;101817.13;107780;1258;73911;-76
2023/01/11 12:20:48;;;;;;;13.40;5.90;;;;;;;-2.69;51.70;101817.33;107848;1262;62369;-75
2023/01/11 12:23:20;;;;;;;12.20;5.70;;;;;;;-2.77;51.78;101812.30;107874;1257;62352;-75
2023/01/11 12:26:17;;;;;;;9.60;5.50;;;;;;;-2.85;51.72;101816.23;107825;1257;74516;-77
2023/01/11 12:29:06;;;;;;;9.60;5.40;;;;;;;-2.80;51.98;101818.65;108131;1253;72572;-76
2023/01/11 12:31:42;;;;;;;11.10;5.70;;;;;;;-2.73;52.14;101816.80;108197;1253;74795;-76
2023/01/11 12:34:41;;;;;;;12.80;5.70;;;;;;;-2.71;52.05;101816.99;108090;1256;60550;-75
2023/01/11 12:37:08;;;;;;;11.10;5.70;;;;;;;-2.83;51.99;101814.71;108054;1253;61384;-76
2023/01/11 12:40:12;;;;;;;11.80;5.60;;;;;;;-2.85;52.16;101816.31;108123;1253;75118;-75
2023/01/11 12:42:48;;;;;;;17.30;7.50;;;;;;;-2.81;52.40;101815.40;107977;1253;74280;-77
2023/01/11 12:45:25;;;;;;;15.40;7.20;;;;;;;-2.80;52.35;101813.61;108102;1253;73326;-75
2023/01/11 12:47:53;;;;;;;17.40;7.10;;;;;;;-2.86;52.28;101814.77;108153;1253;60696;-75
2023/01/11 12:50:32;;;;;;;13.20;6.40;;;;;;;-2.97;52.14;101815.98;108111;1253;62434;-74
2023/01/11 12:53:12;;;;;;;14.60;7.50;;;;;;;-3.07;52.53;101818.24;108123;1253;73126;-74
2023/01/11 12:55:59;;;;;;;12.80;6.80;;;;;;;-3.14;52.75;101807.34;108068;1255;74848;-77
2023/01/11 12:58:43;;;;;;;12.40;6.70;;;;;;;-3.16;53.07;101807.42;108018;1256;71378;-75
2023/01/11 13:01:13;;;;;;;13.60;7.00;;;;;;;-3.17;53.23;101805.77;108118;1256;60941;-76
2023/01/11 13:04:08;;;;;;;11.60;6.70;;;;;;;-3.24;52.91;101797.98;107992;1255;59888;-75
2023/01/11 13:06:52;;;;;;;13.80;7.20;;;;;;;-3.36;53.09;101801.50;108075;1257;73986;-75
2023/01/11 13:09:45;;;;;;;13.80;7.30;;;;;;;-3.46;53.29;101808.17;107945;1256;73745;-75
2023/01/11 13:12:33;;;;;;;13.40;7.10;;;;;;;-3.54;53.49;101813.68;107993;1256;73410;-74
2023/01/11 13:15:19;;;;;;;11.70;6.20;;;;;;;-3.52;53.66;101818.08;107954;1256;61415;-74
2023/01/11 13:17:52;;;;;;;13.30;6.90;;;;;;;-3.51;53.56;101816.58;108056;1255;60647;-75
2023/01/11 13:20:55;;;;;;;13.70;7.30;;;;;;;-3.53;53.55;101811.54;108026;1256;74836;-75
2023/01/11 13:23:38;;;;;;;17.90;7.60;;;;;;;-3.55;53.74;101811.29;108029;1256;75223;-76
2023/01/11 13:26:14;;;;;;;15.20;6.70;;;;;;;-3.57;53.68;101816.88;108003;1255;72914;-75
2023/01/11 13:28:43;;;;;;;11.30;6.30;;;;;;;-3.59;53.70;101817.59;108029;1255;60577;-75
2023/01/11 13:31:11;;;;;;;12.00;6.20;;;;;;;-3.62;53.94;101818.57;108102;1254;59551;-75
2023/01/11 13:33:41;;;;;;;12.60;6.50;;;;;;;-3.63;53.90;101830.17;108157;1256;73896;-74
2023/01/11 13:36:13;;;;;;;16.70;7.20;;;;;;;-3.65;53.73;101836.73;108054;1257;72464;-75
2023/01/11 13:38:54;;;;;;;8.80;4.30;;;;;;;-3.62;53.64;101838.23;108066;1255;74769;-76
2023/01/11 13:41:29;;;;;;;;;;;;;;;-3.60;53.53;101843.10;108059;1253;60036;-76
2023/01/11 13:44:08;;;;;;;13.50;6.70;;;;;;;-3.68;53.47;101843.46;107835;1254;60104;-75
2023/01/11 13:46:59;;;;;;;11.90;6.60;;;;;;;-3.86;53.56;101842.74;108030;1255;73005;-75
2023/01/11 13:49:36;;;;;;;11.10;6.80;;;;;;;-4.08;53.83;101845.27;107982;1256;73904;-76
2023/01/11 13:52:11;;;;;;;12.50;6.50;;;;;;;-4.21;54.23;101849.86;108009;1256;74958;-74
2023/01/11 13:54:52;;;;;;;14.40;6.50;;;;;;;-4.34;54.39;101845.91;107975;1256;63350;-77
2023/01/11 13:58:01;;;;;;;12.30;6.20;;;;;;;-4.48;54.76;101842.35;108034;1255;59663;-77
2023/01/11 14:00:37;;;;;;;10.70;6.30;;;;;;;-4.60;54.94;101844.58;108020;1256;74866;-76
2023/01/11 14:03:29;;;;;;;13.20;5.90;;;;;;;-4.68;55.16;101844.55;108033;1256;73599;-74
2023/01/11 14:06:02;;;;;;;6.70;3.50;;;;;;;-4.75;55.41;101844.11;108016;1257;73066;-75
2023/01/11 14:09:05;;;;;;;15.20;6.40;;;;;;;-4.83;55.72;101842.95;107980;1256;60526;-75
2023/01/11 14:11:32;;;;;;;13.10;6.50;;;;;;;-4.94;55.93;101843.02;108024;1256;61160;-75
2023/01/11 14:14:22;;;;;;;15.30;6.90;;;;;;;-5.01;55.99;101841.27;108027;1256;75279;-75
2023/01/11 14:16:49;;;;;;;13.60;6.70;;;;;;;-5.05;56.37;101844.98;107996;1255;70482;-74
2023/01/11 14:19:43;;;;;;;12.20;6.00;;;;;;;-5.08;56.54;101844.15;108052;1256;75387;-75
2023/01/11 14:22:30;;;;;;;12.70;6.20;;;;;;;-5.08;56.86;101846.37;108149;1256;60338;-73
2023/01/11 14:25:20;;;;;;;15.40;6.90;;;;;;;-5.07;57.14;101855.72;108076;1256;62319;-73
2023/01/11 14:28:06;;;;;;;12.10;6.70;;;;;;;-5.06;57.10;101855.30;107828;1256;74046;-75
2023/01/11 14:30:48;;;;;;;12.50;6.90;;;;;;;-5.03;57.45;101856.23;108059;1256;74757;-74
2023/01/11 14:33:27;;;;;;;12.80;6.90;;;;;;;-4.98;57.51;101865.20;107806;1256;73532;-75
2023/01/11 14:36:13;;;;;;;12.00;6.40;;;;;;;-4.90;57.47;101866.37;108067;1255;60489;-75
2023/01/11 14:38:50;;;;;;;18.70;6.70;;;;;;;-4.83;57.44;101864.89;108054;1255;60492;-74
2023/01/11 14:41:26;;;;;;;12.10;6.20;;;;;;;-4.75;57.64;101859.88;108037;1260;72988;-74
2023/01/11 14:44:02;;;;;;;14.40;6.10;;;;;;;-4.72;57.46;101855.23;108034;1255;71931;-75
2023/01/11 14:46:48;;;;;;;17.10;6.50;;;;;;;-4.69;57.50;101855.92;107867;1256;72587;-76
2023/01/11 14:49:43;;;;;;;14.40;7.40;;;;;;;-4.72;57.44;101860.84;108006;1256;59546;-76
2023/01/11 14:52:13;;;;;;;14.30;7.00;;;;;;;-4.74;57.38;101852.67;108044;1255;60024;-74
2023/01/11 14:54:44;;;;;;;18.00;7.90;;;;;;;-4.75;57.42;101856.23;107989;1256;75239;-75
2023/01/11 14:58:00;;;;;;;14.70;7.10;;;;;;;-4.78;57.61;101854.56;108048;1255;73281;-74
2023/01/11 15:00:27;;;;;;;14.80;7.50;;;;;;;-4.78;57.58;101873.54;107771;1256;73606;-75
2023/01/11 15:03:07;;;;;;;13.20;6.10;;;;;;;-4.77;57.47;101872.73;107984;1255;64114;-76
2023/01/11 15:05:42;;;;;;;14.40;7.70;;;;;;;-4.77;57.63;101877.60;107996;1256;62442;-74
2023/01/11 15:08:22;;;;;;;10.40;6.40;;;;;;;-4.76;57.54;101885.31;107773;1256;75326;-76
2023/01/11 15:10:56;;;;;;;13.70;6.80;;;;;;;-4.72;57.60;101888.28;108040;1256;73500;-75
2023/01/11 15:13:28;;;;;;;12.90;6.90;;;;;;;-4.65;57.33;101888.09;107990;1256;74168;-75
2023/01/11 15:19:11;;;;;;;12.30;7.20;;;;;;;-4.75;57.44;101898.98;107989;1256;59382;-76
2023/01/11 15:21:40;;;;;;;14.10;6.70;;;;;;;-4.82;57.58;101896.11;108031;1255;72832;-75
2023/01/11 15:24:20;;;;;;;11.50;6.80;;;;;;;-4.89;57.58;101895.29;107978;1260;72583;-75
2023/01/11 15:26:47;;;;;;;12.60;6.30;;;;;;;-4.94;57.68;101896.19;108017;1256;73375;-75
2023/01/11 15:29:23;;;;;;;12.00;6.30;;;;;;;-4.96;57.78;101897.71;108024;1256;61246;-75
2023/01/11 15:31:53;;;;;;;11.40;5.90;;;;;;;-5.01;57.55;101894.48;108084;1255;61361;-75
2023/01/11 15:34:29;;;;;;;17.00;8.60;;;;;;;-5.05;57.90;101892.66;107947;1256;73795;-76
2023/01/11 15:37:00;;;;;;;15.30;8.00;;;;;;;-5.07;57.88;101890.23;107808;1256;71539;-75
2023/01/11 15:39:39;;;;;;;14.80;6.80;;;;;;;-5.09;57.91;101890.95;108033;1256;71132;-74
2023/01/11 15:42:35;;;;;;;15.00;7.80;;;;;;;-5.11;57.93;101888.88;107990;1260;62725;-76
2023/01/11 15:45:28;;;;;;;11.90;6.50;;;;;;;-5.16;58.06;101874.33;108013;1256;60712;-76
2023/01/11 15:48:25;;;;;;;14.10;6.90;;;;;;;-5.23;58.30;101868.55;108007;1256;71608;-75
2023/01/11 15:51:09;;;;;;;11.90;6.50;;;;;;;-5.30;58.31;101863.63;107809;1256;72515;-75
2023/01/11 15:53:59;;;;;;;13.40;6.70;;;;;;;-5.35;58.30;101854.30;107825;1256;70489;-76
2023/01/11 15:56:45;;;;;;;15.40;6.90;;;;;;;-5.41;58.47;101859.65;108086;1255;59324;-75
2023/01/11 15:59:23;;;;;;;15.40;8.20;;;;;;;-5.48;58.71;101853.23;108008;1256;61075;-74
2023/01/11 16:02:12;;;;;;;13.00;6.20;;;;;;;-5.51;58.66;101850.16;108007;1260;74108;-77
2023/01/11 16:04:55;;;;;;;16.30;7.10;;;;;;;-5.53;58.89;101851.19;107979;1255;74346;-76
